Aviation Digital Data Service (ADDS)

Output produced by METARs form (2038 UTC 20 August 2019)
found at http://www.aviationweather.gov/metar/data/
 
METAR text: PGRO 202005Z VRB03KT 7SM FEW015 SCT080 24/24 A2980 RMK WIND DATA ESTIMATED FIRST
Conditions at: PGRO (ROTA INTL AIRP , FM) observed 2005 UTC 20 August 2019
Temperature: 24.0°C (75°F)
Dewpoint: 24.0°C (75°F) [RH = 100%]
Pressure (altimeter): 29.80 inches Hg (1009.2 mb)
Winds: variable direction winds at 3 MPH (3 knots; 1.5 m/s)
Visibility: 7 miles (11 km)
Ceiling: at least 12,000 feet AGL
Clouds: few clouds at 1500 feet AGL
scattered clouds at 8000 feet AGL
Weather: no significant weather observed at this time

METAR text: PGRO 200950Z 18012KT 7SM -RA BKN014 26/23 A2982 RMK WIND DATA ESTIMATED LAST
Conditions at: PGRO (ROTA INTL AIRP , FM) observed 0950 UTC 20 August 2019
Temperature: 26.0°C (79°F)
Dewpoint: 23.0°C (73°F) [RH = 84%]
Pressure (altimeter): 29.82 inches Hg (1009.9 mb)
Winds: from the S (180 degrees) at 14 MPH (12 knots; 6.2 m/s)
Visibility: 7 miles (11 km)
Ceiling: 1400 feet AGL
Clouds: broken clouds at 1400 feet AGL
Weather: -RA  (light rain)

METAR text: PGRO 200850Z 19013KT 7SM SCT014 SCT080 27/24 A2978 RMK WIND DATA ESTIMATED
Conditions at: PGRO (ROTA INTL AIRP , FM) observed 0850 UTC 20 August 2019
Temperature: 27.0°C (81°F)
Dewpoint: 24.0°C (75°F) [RH = 84%]
Pressure (altimeter): 29.78 inches Hg (1008.5 mb)
Winds: from the S (190 degrees) at 15 MPH (13 knots; 6.7 m/s)
Visibility: 7 miles (11 km)
Ceiling: at least 12,000 feet AGL
Clouds: scattered clouds at 1400 feet AGL
scattered clouds at 8000 feet AGL
Weather: no significant weather observed at this time

METAR text: PGRO 200750Z 17013KT 7SM FEW014 SCT080 27/24 A2978 RMK WIND DATA ESTIMATED
Conditions at: PGRO (ROTA INTL AIRP , FM) observed 0750 UTC 20 August 2019
Temperature: 27.0°C (81°F)
Dewpoint: 24.0°C (75°F) [RH = 84%]
Pressure (altimeter): 29.78 inches Hg (1008.5 mb)
Winds: from the S (170 degrees) at 15 MPH (13 knots; 6.7 m/s)
Visibility: 7 miles (11 km)
Ceiling: at least 12,000 feet AGL
Clouds: few clouds at 1400 feet AGL
scattered clouds at 8000 feet AGL
Weather: no significant weather observed at this time

METAR text: PGRO 200650Z 18014KT 7SM BKN014 27/24 A2976 RMK WIND DATA ESTIMATED
Conditions at: PGRO (ROTA INTL AIRP , FM) observed 0650 UTC 20 August 2019
Temperature: 27.0°C (81°F)
Dewpoint: 24.0°C (75°F) [RH = 84%]
Pressure (altimeter): 29.76 inches Hg (1007.9 mb)
Winds: from the S (180 degrees) at 16 MPH (14 knots; 7.2 m/s)
Visibility: 7 miles (11 km)
Ceiling: 1400 feet AGL
Clouds: broken clouds at 1400 feet AGL
Weather: no significant weather observed at this time

METAR text: PGRO 200555Z 18013KT 7SM SCT015 SCT100 28/24 A2975 RMK WIND DATA ESTIMATED
Conditions at: PGRO (ROTA INTL AIRP , FM) observed 0555 UTC 20 August 2019
Temperature: 28.0°C (82°F)
Dewpoint: 24.0°C (75°F) [RH = 79%]
Pressure (altimeter): 29.75 inches Hg (1007.5 mb)
Winds: from the S (180 degrees) at 15 MPH (13 knots; 6.7 m/s)
Visibility: 7 miles (11 km)
Ceiling: at least 12,000 feet AGL
Clouds: scattered clouds at 1500 feet AGL
scattered clouds at 10000 feet AGL
Weather: no significant weather observed at this time

METAR text: PGRO 200455Z 18013KT 7SM SCT015 SCT100 29/24 A2976 RMK WIND DATA ESTIMATED
Conditions at: PGRO (ROTA INTL AIRP , FM) observed 0455 UTC 20 August 2019
Temperature: 29.0°C (84°F)
Dewpoint: 24.0°C (75°F) [RH = 74%]
Pressure (altimeter): 29.76 inches Hg (1007.9 mb)
Winds: from the S (180 degrees) at 15 MPH (13 knots; 6.7 m/s)
Visibility: 7 miles (11 km)
Ceiling: at least 12,000 feet AGL
Clouds: scattered clouds at 1500 feet AGL
scattered clouds at 10000 feet AGL
Weather: no significant weather observed at this time

METAR text: PGRO 200350Z 17013KT 7SM SCT018 SCT080 28/24 A2978 RMK WIND DATA ESTIMATED
Conditions at: PGRO (ROTA INTL AIRP , FM) observed 0350 UTC 20 August 2019
Temperature: 28.0°C (82°F)
Dewpoint: 24.0°C (75°F) [RH = 79%]
Pressure (altimeter): 29.78 inches Hg (1008.5 mb)
Winds: from the S (170 degrees) at 15 MPH (13 knots; 6.7 m/s)
Visibility: 7 miles (11 km)
Ceiling: at least 12,000 feet AGL
Clouds: scattered clouds at 1800 feet AGL
scattered clouds at 8000 feet AGL
Weather: no significant weather observed at this time

METAR text: PGRO 200250Z 16013KT 7SM FEW015 SCT080 28/25 A2979 RMK WIND DATA ESTIMATED
Conditions at: PGRO (ROTA INTL AIRP , FM) observed 0250 UTC 20 August 2019
Temperature: 28.0°C (82°F)
Dewpoint: 25.0°C (77°F) [RH = 84%]
Pressure (altimeter): 29.79 inches Hg (1008.9 mb)
Winds: from the SSE (160 degrees) at 15 MPH (13 knots; 6.7 m/s)
Visibility: 7 miles (11 km)
Ceiling: at least 12,000 feet AGL
Clouds: few clouds at 1500 feet AGL
scattered clouds at 8000 feet AGL
Weather: no significant weather observed at this time

METAR text: PGRO 200150Z 17012KT 7SM FEW015 SCT080 28/23 A2981 RMK WIND DATA ESTIMATED
Conditions at: PGRO (ROTA INTL AIRP , FM) observed 0150 UTC 20 August 2019
Temperature: 28.0°C (82°F)
Dewpoint: 23.0°C (73°F) [RH = 74%]
Pressure (altimeter): 29.81 inches Hg (1009.6 mb)
Winds: from the S (170 degrees) at 14 MPH (12 knots; 6.2 m/s)
Visibility: 7 miles (11 km)
Ceiling: at least 12,000 feet AGL
Clouds: few clouds at 1500 feet AGL
scattered clouds at 8000 feet AGL
Weather: no significant weather observed at this time

METAR text: PGRO 200050Z 18012KT 7SM FEW015 SCT080 28/23 A2982 RMK WIND DATA ESTIMATED
Conditions at: PGRO (ROTA INTL AIRP , FM) observed 0050 UTC 20 August 2019
Temperature: 28.0°C (82°F)
Dewpoint: 23.0°C (73°F) [RH = 74%]
Pressure (altimeter): 29.82 inches Hg (1009.9 mb)
Winds: from the S (180 degrees) at 14 MPH (12 knots; 6.2 m/s)
Visibility: 7 miles (11 km)
Ceiling: at least 12,000 feet AGL
Clouds: few clouds at 1500 feet AGL
scattered clouds at 8000 feet AGL
Weather: no significant weather observed at this time

METAR text: PGRO 192350Z 16010KT 7SM FEW015 SCT080 28/23 A2982 RMK WIND DATA ESTIMATED
Conditions at: PGRO (ROTA INTL AIRP , FM) observed 2350 UTC 19 August 2019
Temperature: 28.0°C (82°F)
Dewpoint: 23.0°C (73°F) [RH = 74%]
Pressure (altimeter): 29.82 inches Hg (1009.9 mb)
Winds: from the SSE (160 degrees) at 12 MPH (10 knots; 5.1 m/s)
Visibility: 7 miles (11 km)
Ceiling: at least 12,000 feet AGL
Clouds: few clouds at 1500 feet AGL
scattered clouds at 8000 feet AGL
Weather: no significant weather observed at this time

METAR text: PGRO 192250Z 17010KT 7SM FEW015 SCT080 27/24 A2982 RMK WIND DATA ESTIMATED
Conditions at: PGRO (ROTA INTL AIRP , FM) observed 2250 UTC 19 August 2019
Temperature: 27.0°C (81°F)
Dewpoint: 24.0°C (75°F) [RH = 84%]
Pressure (altimeter): 29.82 inches Hg (1009.9 mb)
Winds: from the S (170 degrees) at 12 MPH (10 knots; 5.1 m/s)
Visibility: 7 miles (11 km)
Ceiling: at least 12,000 feet AGL
Clouds: few clouds at 1500 feet AGL
scattered clouds at 8000 feet AGL
Weather: no significant weather observed at this time

METAR text: PGRO 192150Z 16012KT 7SM FEW015 SCT080 27/24 A2981 RMK WIND DATA ESTIMATED
Conditions at: PGRO (ROTA INTL AIRP , FM) observed 2150 UTC 19 August 2019
Temperature: 27.0°C (81°F)
Dewpoint: 24.0°C (75°F) [RH = 84%]
Pressure (altimeter): 29.81 inches Hg (1009.6 mb)
Winds: from the SSE (160 degrees) at 14 MPH (12 knots; 6.2 m/s)
Visibility: 7 miles (11 km)
Ceiling: at least 12,000 feet AGL
Clouds: few clouds at 1500 feet AGL
scattered clouds at 8000 feet AGL
Weather: no significant weather observed at this time

METAR text: PGRO 192050Z 15010KT 7SM SCT020 SCT080 25/23 A2979 RMK WIND DATA ESTIMATED
Conditions at: PGRO (ROTA INTL AIRP , FM) observed 2050 UTC 19 August 2019
Temperature: 25.0°C (77°F)
Dewpoint: 23.0°C (73°F) [RH = 89%]
Pressure (altimeter): 29.79 inches Hg (1008.9 mb)
Winds: from the SSE (150 degrees) at 12 MPH (10 knots; 5.1 m/s)
Visibility: 7 miles (11 km)
Ceiling: at least 12,000 feet AGL
Clouds: scattered clouds at 2000 feet AGL
scattered clouds at 8000 feet AGL
Weather: no significant weather observed at this time

METAR text: PGRO 192029Z 13011KT 7SM SCT020 SCT080 25/22 A2978 RMK WIND DATA ESTIMATED FIRST
Conditions at: PGRO (ROTA INTL AIRP , FM) observed 2029 UTC 19 August 2019
Temperature: 25.0°C (77°F)
Dewpoint: 22.0°C (72°F) [RH = 83%]
Pressure (altimeter): 29.78 inches Hg (1008.5 mb)
Winds: from the SE (130 degrees) at 13 MPH (11 knots; 5.7 m/s)
Visibility: 7 miles (11 km)
Ceiling: at least 12,000 feet AGL
Clouds: scattered clouds at 2000 feet AGL
scattered clouds at 8000 feet AGL
Weather: no significant weather observed at this time

METAR text: PGRO 190950Z 13012KT 7SM SCT014 25/24 A2975 RMK WIND DATA ESTIMATED LAST
Conditions at: PGRO (ROTA INTL AIRP , FM) observed 0950 UTC 19 August 2019
Temperature: 25.0°C (77°F)
Dewpoint: 24.0°C (75°F) [RH = 94%]
Pressure (altimeter): 29.75 inches Hg (1007.5 mb)
Winds: from the SE (130 degrees) at 14 MPH (12 knots; 6.2 m/s)
Visibility: 7 miles (11 km)
Ceiling: at least 12,000 feet AGL
Clouds: scattered clouds at 1400 feet AGL
Weather: no significant weather observed at this time

METAR text: PGRO 190855Z 15014KT 7SM SCT015 BKN100 25/24 A2973 RMK WIND DATA ESTIMATED
Conditions at: PGRO (ROTA INTL AIRP , FM) observed 0855 UTC 19 August 2019
Temperature: 25.0°C (77°F)
Dewpoint: 24.0°C (75°F) [RH = 94%]
Pressure (altimeter): 29.73 inches Hg (1006.9 mb)
Winds: from the SSE (150 degrees) at 16 MPH (14 knots; 7.2 m/s)
Visibility: 7 miles (11 km)
Ceiling: 10000 feet AGL
Clouds: scattered clouds at 1500 feet AGL
broken clouds at 10000 feet AGL
Weather: no significant weather observed at this time